Decoded Metar for KVAD (VALDOSTA in GA, USA) (IATA:VAD) | Meteo·Mobile Aviation Weather
aviador You're here:

KVAD Decoded Metar

VALDOSTA in GA, USA
Report Time2018-12-16 02:56:00
UTC Time2018-12-16 04:00:02
Flight Rules vfr VFR
Wind310° at 11 kt
W.Decomp.*RWY 36: 7.5 kt HW 8 kt LCW
W.Rank310° ranks 21
Current wind is above 310° avg. (6.9)
Visibility9999 m
Phenomena:N/A
Clouds:Scattered 030 Hf
Scattered 035 Hf
Broken 045 Hf
Expected CloudBase > 1,200 ft AGL from Temp-Dew spread
Ceiling4,500 ft
Temp13°C (ISA -2)
Dew Point10°C (82% RH)
AAT9.1°C
QNH1018 hPa
Density Alt46 ft
Elevation233 ft
Report Wrong Elevation
Raw Report
KVAD 160256Z AUTO 31011KT 10SM SCT030 SCT035 BKN045 13/10 A3007
RMK AO2 SLP185 T01340102 52021 $=

Extra information for KVAD:More info

Metar Taf Metar & Taf Last 4 Metars F.Rules Stats Wind Profile Meteogram Temp Stats Airport Information Weather charts Add Link Nearby VenuesMetar ALERT Operation Metar Decoded Social comments

AIRNAV info for KVAD